Time;durP1;ratioP1;P1;durP2;ratioP2;P2;SDS_P1;SDS_P2;PMS_P1;PMS_P2;Temp;Humidity;BMP_temperature;BMP_pressure;BME280_temperature;BME280_humidity;BME280_pressure;Samples;Min_cycle;Max_cycle;Signal;HPM_P1;HPM_P2
2023/05/11 00:00:16;;;;;;;9.83;8.87;;;13.70;99.90;;;;;;5009282;28;20179;-69
2023/05/11 00:02:42;;;;;;;11.90;10.27;;;13.70;99.90;;;;;;5009190;28;20175;-69
2023/05/11 00:05:09;;;;;;;14.50;10.40;;;13.70;99.90;;;;;;5015097;28;20996;-68
2023/05/11 00:07:34;;;;;;;15.13;10.93;;;13.70;99.90;;;;;;5017723;28;20598;-68
2023/05/11 00:10:00;;;;;;;13.20;10.90;;;13.60;99.90;;;;;;5017258;28;20961;-69
2023/05/11 00:12:25;;;;;;;10.70;9.70;;;13.60;99.90;;;;;;5021879;28;20659;-69
2023/05/11 00:14:51;;;;;;;12.70;10.07;;;13.60;99.90;;;;;;5013679;28;20566;-68
2023/05/11 00:17:18;;;;;;;14.07;9.90;;;13.60;99.90;;;;;;5010181;28;20346;-67
2023/05/11 00:19:43;;;;;;;12.00;9.67;;;13.60;99.90;;;;;;5007238;28;20168;-68
2023/05/11 00:22:09;;;;;;;13.07;11.30;;;13.60;99.90;;;;;;5018906;28;20453;-68
2023/05/11 00:24:35;;;;;;;12.77;11.43;;;13.50;99.90;;;;;;5018391;28;20620;-69
2023/05/11 00:27:00;;;;;;;10.97;9.87;;;13.50;99.90;;;;;;5017703;28;20566;-69
2023/05/11 00:29:26;;;;;;;11.80;9.60;;;13.50;99.90;;;;;;5018323;28;20201;-69
2023/05/11 00:31:51;;;;;;;11.50;10.40;;;13.50;99.90;;;;;;5020573;28;20178;-69
2023/05/11 00:34:17;;;;;;;14.33;10.90;;;13.40;99.90;;;;;;5006464;28;20498;-68
2023/05/11 00:36:43;;;;;;;13.77;10.00;;;13.40;99.90;;;;;;5006367;28;20182;-68
2023/05/11 00:39:10;;;;;;;13.73;10.40;;;13.40;99.90;;;;;;5015695;28;20202;-69
2023/05/11 00:41:36;;;;;;;12.13;10.87;;;13.40;99.90;;;;;;5015676;28;20171;-69
2023/05/11 00:44:02;;;;;;;11.97;10.80;;;13.30;99.90;;;;;;5014909;28;20448;-68
2023/05/11 00:46:27;;;;;;;10.57;9.53;;;13.30;99.90;;;;;;5018637;28;20171;-69
2023/05/11 00:48:53;;;;;;;15.10;11.00;;;13.20;99.90;;;;;;5015032;28;20753;-69
2023/05/11 00:51:20;;;;;;;12.60;10.63;;;13.20;99.90;;;;;;5018088;28;20179;-69
2023/05/11 00:53:46;;;;;;;13.20;11.80;;;13.20;99.90;;;;;;5021150;28;20556;-68
2023/05/11 00:56:12;;;;;;;12.63;10.80;;;13.20;99.90;;;;;;5010614;28;20879;-68
2023/05/11 00:58:38;;;;;;;15.20;12.40;;;13.20;99.90;;;;;;5021296;28;20443;-69
2023/05/11 01:01:04;;;;;;;15.20;11.53;;;13.30;99.90;;;;;;5015754;28;20684;-69
2023/05/11 01:03:30;;;;;;;13.30;11.10;;;13.40;99.90;;;;;;5011267;28;20188;-70
2023/05/11 01:06:14;;;;;;;11.67;10.47;;;13.30;99.90;;;;;;5013982;28;20536;-70
2023/05/11 01:08:45;;;;;;;13.47;12.07;;;13.20;99.90;;;;;;5011960;28;20921;-68
2023/05/11 01:11:22;;;;;;;15.93;11.70;;;13.20;99.90;;;;;;5017381;28;20449;-68
2023/05/11 01:13:53;;;;;;;13.10;11.23;;;13.20;99.90;;;;;;5010034;28;20573;-69
2023/05/11 01:16:23;;;;;;;14.60;12.17;;;13.30;99.90;;;;;;5011549;28;20425;-68
2023/05/11 01:18:56;;;;;;;13.13;11.70;;;13.30;99.90;;;;;;5003107;28;20815;-69
2023/05/11 01:21:22;;;;;;;12.20;10.80;;;13.30;99.90;;;;;;5018503;28;20991;-69
2023/05/11 01:23:59;;;;;;;17.23;13.90;;;13.20;99.90;;;;;;5010544;28;20427;-69
2023/05/11 01:26:37;;;;;;;13.20;11.33;;;13.20;99.90;;;;;;5016561;28;20416;-68
2023/05/11 01:29:30;;;;;;;17.10;12.70;;;13.10;99.90;;;;;;5002923;28;20555;-68
2023/05/11 01:31:58;;;;;;;13.47;11.90;;;13.10;99.90;;;;;;5009513;28;20418;-68
2023/05/11 01:34:29;;;;;;;17.40;12.67;;;13.00;99.90;;;;;;5010300;28;20450;-69
2023/05/11 01:37:04;;;;;;;14.80;13.30;;;13.00;99.90;;;;;;5004654;28;20405;-68
2023/05/11 01:39:37;;;;;;;17.23;11.77;;;13.00;99.90;;;;;;5016194;28;20424;-69
2023/05/11 01:42:08;;;;;;;16.80;14.77;;;13.10;99.90;;;;;;5009970;28;20411;-69
2023/05/11 01:44:36;;;;;;;16.43;14.70;;;13.10;99.90;;;;;;5001769;28;20714;-68
2023/05/11 01:47:03;;;;;;;16.47;12.97;;;13.10;99.90;;;;;;5019814;28;20471;-69
2023/05/11 01:49:33;;;;;;;18.33;13.50;;;13.10;99.90;;;;;;5016356;28;20929;-68
2023/05/11 01:52:01;;;;;;;16.77;15.00;;;13.10;99.90;;;;;;5012921;28;20801;-69
2023/05/11 01:54:29;;;;;;;17.63;14.37;;;13.10;99.90;;;;;;5014425;28;20452;-68
2023/05/11 01:56:57;;;;;;;14.60;13.10;;;13.10;99.90;;;;;;5017391;28;20503;-69
2023/05/11 01:59:25;;;;;;;16.20;13.90;;;13.00;99.90;;;;;;5007895;28;20437;-69
2023/05/11 02:01:51;;;;;;;17.97;15.50;;;13.00;99.90;;;;;;5011514;28;20505;-68
2023/05/11 02:04:18;;;;;;;16.30;13.70;;;13.00;99.90;;;;;;5012958;28;20425;-69
2023/05/11 02:06:46;;;;;;;16.93;14.37;;;13.00;99.90;;;;;;5020096;28;20872;-68
2023/05/11 02:09:15;;;;;;;15.90;13.47;;;13.00;99.90;;;;;;5013105;28;20434;-69
2023/05/11 02:11:42;;;;;;;15.90;13.20;;;12.90;99.90;;;;;;5014136;28;20516;-69
2023/05/11 02:14:10;;;;;;;16.43;13.67;;;12.90;99.90;;;;;;5012032;28;20489;-68
2023/05/11 02:16:37;;;;;;;15.73;13.60;;;12.90;99.90;;;;;;5016111;28;20731;-68
2023/05/11 02:19:06;;;;;;;15.30;13.53;;;12.90;99.90;;;;;;5007160;28;20435;-69
2023/05/11 02:21:32;;;;;;;15.47;13.87;;;12.80;99.90;;;;;;4996940;28;20858;-69
2023/05/11 02:24:02;;;;;;;15.10;13.50;;;12.80;99.90;;;;;;5017458;28;20918;-68
2023/05/11 02:26:27;;;;;;;15.60;13.40;;;12.80;99.90;;;;;;5015290;28;20451;-68
2023/05/11 02:28:53;;;;;;;14.63;13.13;;;12.80;99.90;;;;;;5011522;28;20874;-70
2023/05/11 02:31:28;;;;;;;13.53;12.17;;;12.80;99.90;;;;;;5013633;28;20183;-69
2023/05/11 02:33:59;;;;;;;15.23;13.57;;;12.80;99.90;;;;;;5003336;28;20302;-68
2023/05/11 02:36:27;;;;;;;15.90;13.97;;;12.80;99.90;;;;;;5018566;28;20414;-68
2023/05/11 02:39:00;;;;;;;14.67;12.90;;;12.80;99.90;;;;;;5016201;28;20426;-68
2023/05/11 02:41:28;;;;;;;15.57;12.70;;;12.80;99.90;;;;;;5016877;28;20892;-68
2023/05/11 02:43:57;;;;;;;14.87;13.17;;;12.70;99.90;;;;;;5012904;28;20444;-68
2023/05/11 02:46:32;;;;;;;15.80;11.03;;;12.70;99.90;;;;;;5006506;28;20505;-69
2023/05/11 02:49:00;;;;;;;13.60;11.90;;;12.70;99.90;;;;;;5021264;28;20543;-69
2023/05/11 02:51:38;;;;;;;14.03;12.57;;;12.70;99.90;;;;;;5011139;28;20421;-69
2023/05/11 02:54:09;;;;;;;16.00;11.90;;;12.70;99.90;;;;;;5010974;28;20735;-69
2023/05/11 02:56:36;;;;;;;14.70;11.90;;;12.60;99.90;;;;;;5008844;28;20419;-68
2023/05/11 02:59:02;;;;;;;12.50;11.30;;;12.60;99.90;;;;;;5016957;28;20436;-68
2023/05/11 03:01:28;;;;;;;11.97;10.53;;;12.60;99.90;;;;;;5021879;28;20790;-68
2023/05/11 03:03:54;;;;;;;12.40;11.30;;;12.50;99.90;;;;;;5022032;28;20811;-68
2023/05/11 03:06:19;;;;;;;11.93;10.37;;;12.50;99.90;;;;;;5006622;28;20480;-69
2023/05/11 03:08:46;;;;;;;12.00;10.70;;;12.40;99.90;;;;;;5013851;28;20563;-68
2023/05/11 03:11:14;;;;;;;10.70;9.80;;;12.40;99.90;;;;;;5022722;28;20629;-69
2023/05/11 03:13:41;;;;;;;12.50;11.10;;;12.40;99.90;;;;;;5009889;28;20962;-69
2023/05/11 03:16:10;;;;;;;12.93;11.03;;;12.40;99.90;;;;;;5007534;28;20935;-68
2023/05/11 03:18:36;;;;;;;11.23;10.07;;;12.40;99.90;;;;;;5009077;28;20431;-68
2023/05/11 03:21:02;;;;;;;11.20;10.20;;;12.40;99.90;;;;;;5018090;28;20425;-69
2023/05/11 03:23:29;;;;;;;11.63;9.50;;;12.40;99.90;;;;;;5019447;28;20445;-69
2023/05/11 03:25:56;;;;;;;12.30;10.00;;;12.40;99.90;;;;;;5008425;28;20840;-68
2023/05/11 03:28:24;;;;;;;10.87;9.70;;;12.40;99.90;;;;;;5012603;28;20887;-69
2023/05/11 03:30:51;;;;;;;10.60;9.60;;;12.40;99.90;;;;;;5014891;28;21016;-68
2023/05/11 03:33:18;;;;;;;10.63;9.63;;;12.50;99.90;;;;;;5015284;28;20466;-70
2023/05/11 03:35:46;;;;;;;9.70;8.70;;;12.40;99.90;;;;;;5017648;28;20422;-69
2023/05/11 03:38:13;;;;;;;10.10;9.10;;;12.40;99.90;;;;;;5014242;28;20446;-69
2023/05/11 03:40:41;;;;;;;14.10;8.50;;;12.40;99.90;;;;;;5017017;28;20895;-68
2023/05/11 03:43:10;;;;;;;9.73;8.60;;;12.40;99.90;;;;;;5018668;28;20413;-69
2023/05/11 03:45:36;;;;;;;9.53;8.47;;;12.50;99.90;;;;;;5014979;28;20426;-67
2023/05/11 03:48:04;;;;;;;10.60;9.37;;;12.50;99.90;;;;;;5005854;28;20894;-68
2023/05/11 03:50:30;;;;;;;10.90;9.50;;;12.50;99.90;;;;;;5004887;28;20433;-69
2023/05/11 03:52:56;;;;;;;7.73;6.83;;;12.50;99.90;;;;;;5005933;28;20529;-68
2023/05/11 03:55:23;;;;;;;10.60;9.67;;;12.50;99.90;;;;;;5016296;28;20414;-68
2023/05/11 03:57:48;;;;;;;10.40;9.27;;;12.60;99.90;;;;;;5008664;28;20433;-68
2023/05/11 04:00:15;;;;;;;10.77;8.90;;;12.50;99.90;;;;;;5021376;28;20430;-69
2023/05/11 04:02:41;;;;;;;10.53;9.53;;;12.60;99.90;;;;;;5016570;28;20171;-69
2023/05/11 04:05:10;;;;;;;9.70;8.67;;;12.60;99.90;;;;;;5012094;28;21212;-69
2023/05/11 04:07:37;;;;;;;9.70;8.50;;;12.60;99.90;;;;;;5010678;28;20430;-68
2023/05/11 04:10:04;;;;;;;9.57;8.77;;;12.60;99.90;;;;;;5017396;28;21066;-68
2023/05/11 04:12:30;;;;;;;8.93;8.10;;;12.60;99.90;;;;;;5008672;28;20495;-70
2023/05/11 04:14:55;;;;;;;9.97;8.77;;;12.60;99.90;;;;;;5006590;28;21451;-68
2023/05/11 04:17:21;;;;;;;8.63;7.80;;;12.60;99.90;;;;;;5007337;28;20595;-68
2023/05/11 04:19:46;;;;;;;8.37;7.67;;;12.70;99.90;;;;;;5008139;28;20180;-69
2023/05/11 04:22:12;;;;;;;9.90;7.67;;;12.70;99.90;;;;;;5014090;28;20186;-69
2023/05/11 04:24:38;;;;;;;9.07;8.13;;;12.70;99.90;;;;;;5020243;28;20536;-69
2023/05/11 04:27:04;;;;;;;8.50;7.60;;;12.80;99.90;;;;;;5012293;28;20202;-69
2023/05/11 04:29:30;;;;;;;8.50;7.67;;;12.80;99.90;;;;;;5010064;28;20496;-68
2023/05/11 04:31:56;;;;;;;8.70;7.93;;;12.90;99.90;;;;;;5006172;28;20864;-68
2023/05/11 04:34:21;;;;;;;8.77;7.97;;;13.00;99.90;;;;;;5018190;28;20313;-69
2023/05/11 04:36:48;;;;;;;8.00;7.30;;;13.00;99.90;;;;;;5004237;28;21420;-68
2023/05/11 04:39:15;;;;;;;9.23;7.77;;;13.10;99.90;;;;;;5017784;28;20263;-68
2023/05/11 04:41:44;;;;;;;8.47;7.63;;;13.10;99.90;;;;;;5006770;28;20441;-69
2023/05/11 04:44:10;;;;;;;8.67;7.63;;;13.20;99.90;;;;;;5018200;28;21110;-68
2023/05/11 04:46:37;;;;;;;10.07;6.67;;;13.20;99.90;;;;;;5015291;28;20416;-68
2023/05/11 04:49:03;;;;;;;11.23;7.07;;;13.30;99.90;;;;;;5007403;28;20540;-69
2023/05/11 04:51:29;;;;;;;8.13;7.43;;;13.40;99.90;;;;;;5008991;28;20422;-69
2023/05/11 04:53:55;;;;;;;7.10;6.40;;;13.50;99.90;;;;;;5002771;28;20588;-68
2023/05/11 04:56:20;;;;;;;7.33;6.63;;;13.60;99.90;;;;;;5019479;28;20210;-68
2023/05/11 04:58:46;;;;;;;8.27;7.47;;;13.60;99.90;;;;;;5011852;28;20619;-69
2023/05/11 05:01:12;;;;;;;7.70;6.90;;;13.70;99.90;;;;;;5013624;28;20285;-69
2023/05/11 05:03:37;;;;;;;7.37;6.67;;;13.80;99.90;;;;;;5015427;28;20522;-70
2023/05/11 05:06:03;;;;;;;7.03;6.33;;;14.00;99.90;;;;;;5004374;28;20238;-68
2023/05/11 05:08:28;;;;;;;6.40;5.50;;;14.40;99.90;;;;;;5016037;28;20670;-69
2023/05/11 05:10:54;;;;;;;6.80;5.43;;;14.90;99.90;;;;;;5017674;28;20604;-68
2023/05/11 05:13:19;;;;;;;5.50;5.00;;;15.40;99.90;;;;;;5018398;28;20221;-69
2023/05/11 05:15:45;;;;;;;5.80;4.90;;;16.10;99.90;;;;;;5010139;28;20558;-69
2023/05/11 05:18:11;;;;;;;7.50;5.27;;;16.50;99.90;;;;;;5015744;28;20199;-69
2023/05/11 05:20:36;;;;;;;5.97;5.40;;;16.50;99.90;;;;;;5008182;28;20241;-69
2023/05/11 05:23:02;;;;;;;5.57;5.07;;;17.30;99.90;;;;;;5014698;28;20189;-69
2023/05/11 05:25:27;;;;;;;6.10;4.50;;;17.60;99.90;;;;;;5009719;28;20232;-68
2023/05/11 05:27:53;;;;;;;5.63;5.10;;;18.30;99.90;;;;;;5011050;28;20324;-69
2023/05/11 05:30:18;;;;;;;4.93;4.53;;;18.50;99.90;;;;;;5008468;28;20616;-69
2023/05/11 05:32:44;;;;;;;7.67;5.80;;;18.10;99.90;;;;;;5009615;28;20217;-68
2023/05/11 05:35:10;;;;;;;5.23;4.73;;;18.30;99.90;;;;;;5007191;28;20178;-68
2023/05/11 05:37:36;;;;;;;5.57;4.83;;;18.60;99.90;;;;;;5013053;28;20229;-69
2023/05/11 05:40:03;;;;;;;5.27;4.80;;;18.80;99.90;;;;;;5010803;28;20229;-69
2023/05/11 05:42:28;;;;;;;4.87;4.37;;;19.10;99.90;;;;;;5017154;28;21009;-69
2023/05/11 05:44:54;;;;;;;5.03;4.63;;;19.40;99.90;;;;;;5016185;28;20443;-69
2023/05/11 05:47:20;;;;;;;6.00;5.50;;;18.60;99.90;;;;;;5003052;28;20282;-69
2023/05/11 05:49:45;;;;;;;8.10;5.13;;;19.00;99.90;;;;;;5003584;28;20526;-68
2023/05/11 05:52:11;;;;;;;7.23;4.83;;;19.10;99.90;;;;;;5006269;28;20996;-68
2023/05/11 05:54:37;;;;;;;4.70;4.20;;;19.60;99.90;;;;;;5014831;28;20214;-69
2023/05/11 05:57:02;;;;;;;5.20;4.70;;;20.10;99.90;;;;;;5013063;28;20178;-68
2023/05/11 05:59:28;;;;;;;4.97;4.57;;;20.60;99.90;;;;;;5012911;28;20193;-68
2023/05/11 06:01:54;;;;;;;5.53;5.03;;;20.60;99.90;;;;;;5015320;28;20194;-69
2023/05/11 06:04:20;;;;;;;5.97;4.80;;;20.90;99.90;;;;;;5017342;28;20418;-69
2023/05/11 06:06:46;;;;;;;9.60;4.67;;;20.60;99.90;;;;;;5006139;28;20174;-69
2023/05/11 06:09:12;;;;;;;8.83;4.40;;;20.70;99.90;;;;;;5009644;28;20230;-69
2023/05/11 06:11:37;;;;;;;4.50;4.07;;;21.20;99.90;;;;;;5012176;28;20463;-68
2023/05/11 06:14:03;;;;;;;7.50;4.63;;;21.60;99.90;;;;;;5011723;28;20582;-69
2023/05/11 06:16:29;;;;;;;5.33;4.40;;;21.30;99.90;;;;;;5006602;28;20179;-69
2023/05/11 06:18:55;;;;;;;5.10;4.70;;;21.90;99.90;;;;;;5005458;28;20598;-68
2023/05/11 06:21:20;;;;;;;4.00;3.70;;;22.30;99.90;;;;;;5013729;28;20733;-69
2023/05/11 06:23:46;;;;;;;4.23;3.83;;;21.70;99.90;;;;;;5013463;28;20968;-70
2023/05/11 06:26:11;;;;;;;4.30;3.97;;;21.70;99.90;;;;;;5013571;28;20540;-69
2023/05/11 06:28:37;;;;;;;5.03;4.47;;;22.30;99.90;;;;;;5017293;28;20299;-70
2023/05/11 06:31:03;;;;;;;4.27;3.70;;;22.50;99.90;;;;;;5008821;28;20404;-72
2023/05/11 06:33:29;;;;;;;4.40;4.00;;;22.40;99.90;;;;;;5012549;28;20203;-67
2023/05/11 06:35:54;;;;;;;4.30;4.00;;;23.30;99.90;;;;;;5012098;28;20176;-67
2023/05/11 06:38:20;;;;;;;3.83;3.37;;;23.80;99.90;;;;;;5017588;28;20428;-67
2023/05/11 06:40:46;;;;;;;4.97;3.97;;;23.70;99.90;;;;;;5015004;28;20201;-68
2023/05/11 06:43:11;;;;;;;4.60;4.20;;;24.20;99.60;;;;;;5015590;28;20741;-67
2023/05/11 06:45:37;;;;;;;4.27;3.87;;;23.50;98.70;;;;;;5016643;28;20186;-66
2023/05/11 06:48:03;;;;;;;4.20;3.23;;;24.00;99.80;;;;;;5009288;28;20404;-67
2023/05/11 06:50:29;;;;;;;4.40;4.00;;;24.60;97.50;;;;;;5009750;28;20739;-67
2023/05/11 06:52:55;;;;;;;4.23;3.87;;;24.80;95.90;;;;;;5012219;28;20422;-68
2023/05/11 06:55:20;;;;;;;4.83;4.00;;;23.90;97.70;;;;;;5010467;28;20856;-68
2023/05/11 06:57:46;;;;;;;3.53;3.23;;;25.10;96.40;;;;;;5011872;28;20589;-67
2023/05/11 07:00:12;;;;;;;5.43;3.90;;;24.50;96.70;;;;;;5011116;28;20180;-67
2023/05/11 07:02:37;;;;;;;3.47;3.17;;;23.60;96.30;;;;;;5012634;28;20489;-67
2023/05/11 07:05:03;;;;;;;4.33;3.43;;;24.20;96.60;;;;;;5012373;28;20414;-68
2023/05/11 07:07:29;;;;;;;4.00;3.60;;;23.50;96.70;;;;;;5016615;28;20171;-67
2023/05/11 07:09:55;;;;;;;4.27;3.90;;;24.00;96.50;;;;;;5015072;28;20205;-68
2023/05/11 07:12:21;;;;;;;3.00;2.80;;;23.80;96.00;;;;;;5013036;28;20168;-68
2023/05/11 07:14:47;;;;;;;3.93;3.40;;;24.20;96.00;;;;;;5013597;28;20577;-67
2023/05/11 07:17:12;;;;;;;2.87;2.67;;;24.60;95.10;;;;;;5008819;28;20473;-66
2023/05/11 07:19:38;;;;;;;3.67;3.37;;;25.20;93.60;;;;;;5009953;28;20565;-66
2023/05/11 07:22:04;;;;;;;7.00;3.50;;;25.40;93.40;;;;;;5008973;28;20605;-67
2023/05/11 07:24:30;;;;;;;7.67;3.40;;;24.20;95.40;;;;;;5007366;28;20181;-67
2023/05/11 07:26:56;;;;;;;2.77;2.57;;;23.70;95.70;;;;;;5010753;28;20414;-67
2023/05/11 07:29:21;;;;;;;3.00;2.80;;;24.60;94.60;;;;;;5016205;28;20201;-68
2023/05/11 07:31:47;;;;;;;3.43;3.13;;;24.70;93.50;;;;;;5013793;28;20671;-67
2023/05/11 07:34:13;;;;;;;2.67;2.47;;;25.20;93.20;;;;;;5008658;28;20286;-66
2023/05/11 07:36:38;;;;;;;4.23;3.00;;;25.50;91.10;;;;;;5010540;28;20187;-68
2023/05/11 07:39:04;;;;;;;2.67;2.47;;;25.40;91.00;;;;;;5011884;28;20192;-67
2023/05/11 07:41:30;;;;;;;2.60;2.40;;;25.80;90.00;;;;;;5014517;28;20175;-68
2023/05/11 07:43:55;;;;;;;3.70;2.93;;;26.00;89.60;;;;;;5014229;28;20171;-66
2023/05/11 07:46:21;;;;;;;3.30;3.00;;;26.20;87.90;;;;;;5014611;28;20179;-67
2023/05/11 07:48:46;;;;;;;2.37;2.17;;;25.20;90.20;;;;;;5009629;28;21087;-68
2023/05/11 07:51:12;;;;;;;2.50;2.30;;;25.70;89.60;;;;;;5007898;28;20275;-69
2023/05/11 07:53:38;;;;;;;3.87;2.63;;;25.50;89.00;;;;;;5006202;28;20276;-68
2023/05/11 07:56:04;;;;;;;4.60;2.83;;;24.60;91.20;;;;;;5010258;28;20478;-67
2023/05/11 07:58:31;;;;;;;11.70;2.70;;;24.20;92.30;;;;;;5013049;28;20195;-67
2023/05/11 08:00:57;;;;;;;8.40;2.50;;;24.80;91.40;;;;;;5010438;28;20942;-67
2023/05/11 08:03:22;;;;;;;3.00;2.53;;;24.30;92.30;;;;;;5014350;28;20425;-67
2023/05/11 08:05:48;;;;;;;4.13;2.30;;;25.40;91.80;;;;;;5008573;28;20599;-68
2023/05/11 08:08:14;;;;;;;3.00;2.30;;;24.90;92.60;;;;;;5014284;28;20846;-67
2023/05/11 08:10:40;;;;;;;4.23;3.10;;;25.00;92.40;;;;;;5013980;28;20457;-68
2023/05/11 08:13:06;;;;;;;3.53;2.47;;;25.40;91.40;;;;;;5013898;28;20484;-68
2023/05/11 08:15:32;;;;;;;2.67;2.47;;;25.90;89.90;;;;;;5012733;28;20206;-71
2023/05/11 08:17:59;;;;;;;2.63;2.43;;;25.70;89.70;;;;;;5015563;28;20186;-70
2023/05/11 08:20:25;;;;;;;2.57;2.37;;;26.10;87.10;;;;;;5007387;28;20414;-69
2023/05/11 08:22:50;;;;;;;4.20;2.70;;;26.60;84.10;;;;;;5003105;28;20407;-70
2023/05/11 08:25:16;;;;;;;2.53;2.33;;;26.60;82.80;;;;;;4999099;28;21253;-68
2023/05/11 08:27:42;;;;;;;2.40;2.20;;;26.40;81.80;;;;;;4997386;28;20271;-69
2023/05/11 08:30:08;;;;;;;2.43;2.23;;;25.60;84.20;;;;;;5002199;28;20475;-69
2023/05/11 08:32:35;;;;;;;2.70;2.50;;;25.10;84.10;;;;;;5001963;28;20299;-70
2023/05/11 08:35:02;;;;;;;4.33;2.50;;;25.50;83.70;;;;;;5001072;28;20570;-68
2023/05/11 08:37:28;;;;;;;4.70;2.77;;;25.90;83.40;;;;;;5001340;28;20531;-69
2023/05/11 08:39:54;;;;;;;3.20;2.67;;;25.80;84.90;;;;;;4999935;28;20411;-69
2023/05/11 08:42:22;;;;;;;2.83;2.50;;;25.90;82.20;;;;;;5005148;28;20175;-69
2023/05/11 08:44:48;;;;;;;4.50;2.17;;;26.30;81.60;;;;;;5004648;28;20596;-69
2023/05/11 08:47:14;;;;;;;4.13;2.80;;;25.90;81.60;;;;;;5005071;28;20656;-69
2023/05/11 08:49:40;;;;;;;2.60;2.30;;;25.60;81.30;;;;;;5001051;28;20508;-70
2023/05/11 08:52:06;;;;;;;3.50;2.60;;;25.40;81.10;;;;;;5002221;28;20825;-69
2023/05/11 08:54:32;;;;;;;2.70;2.50;;;25.20;81.30;;;;;;4999920;28;20462;-69
2023/05/11 08:56:58;;;;;;;2.40;2.23;;;25.50;81.20;;;;;;5002677;28;20233;-69
2023/05/11 08:59:27;;;;;;;4.17;2.13;;;26.00;80.70;;;;;;5001011;28;20278;-70
2023/05/11 09:01:55;;;;;;;2.60;2.40;;;26.80;78.40;;;;;;5005712;28;20905;-70
2023/05/11 09:04:22;;;;;;;3.07;2.47;;;26.90;76.30;;;;;;5000714;28;20426;-68
2023/05/11 09:06:49;;;;;;;8.00;3.27;;;26.50;76.50;;;;;;5006772;28;20426;-70
2023/05/11 09:09:17;;;;;;;2.73;2.53;;;25.80;77.60;;;;;;5017780;28;20862;-70
2023/05/11 09:11:45;;;;;;;2.43;2.23;;;25.00;78.70;;;;;;5014558;28;20411;-70
2023/05/11 09:14:12;;;;;;;2.83;2.23;;;25.50;78.60;;;;;;5008938;28;20457;-69
2023/05/11 09:16:37;;;;;;;3.50;2.20;;;26.10;77.40;;;;;;5011127;28;20461;-71
2023/05/11 09:19:04;;;;;;;2.90;2.20;;;26.30;75.50;;;;;;5010435;28;20858;-69
2023/05/11 09:21:30;;;;;;;2.97;2.67;;;26.40;74.40;;;;;;5015130;28;20172;-69
2023/05/11 09:24:00;;;;;;;2.70;2.50;;;26.20;76.00;;;;;;5016285;28;20881;-68
2023/05/11 09:26:28;;;;;;;3.63;2.33;;;25.40;76.30;;;;;;5014696;28;20860;-69
2023/05/11 09:28:59;;;;;;;4.30;2.23;;;25.60;76.90;;;;;;5003579;28;20442;-68
2023/05/11 09:31:42;;;;;;;2.80;1.80;;;26.00;77.20;;;;;;5016810;28;20632;-69
2023/05/11 09:34:15;;;;;;;2.33;2.13;;;26.20;75.20;;;;;;5005936;28;20609;-69
2023/05/11 09:36:42;;;;;;;3.00;2.13;;;26.00;74.60;;;;;;5011951;28;21233;-69
2023/05/11 09:39:08;;;;;;;2.10;1.90;;;26.30;74.00;;;;;;5003672;28;20636;-69
2023/05/11 09:41:33;;;;;;;3.30;2.60;;;26.50;73.70;;;;;;5018312;28;21180;-68
2023/05/11 09:44:13;;;;;;;2.00;1.90;;;26.70;73.80;;;;;;5013241;28;20175;-70
2023/05/11 09:46:44;;;;;;;2.80;2.13;;;26.80;67.20;;;;;;5009428;28;20637;-69
2023/05/11 09:49:10;;;;;;;1.97;1.77;;;26.80;66.80;;;;;;5014111;28;20457;-69
2023/05/11 09:51:39;;;;;;;4.17;2.57;;;26.40;69.00;;;;;;5009812;28;20784;-69
2023/05/11 09:54:16;;;;;;;4.27;1.60;;;26.70;69.20;;;;;;5011555;28;20955;-69
2023/05/11 09:56:46;;;;;;;3.30;2.33;;;26.70;67.10;;;;;;5008660;28;20460;-69
2023/05/11 09:59:14;;;;;;;2.40;1.63;;;26.50;67.00;;;;;;5020907;28;20452;-70
2023/05/11 10:01:40;;;;;;;5.27;2.20;;;25.20;72.00;;;;;;5015287;28;20413;-70
2023/05/11 10:04:07;;;;;;;3.10;2.10;;;25.00;71.90;;;;;;5011100;28;20930;-70
2023/05/11 10:06:47;;;;;;;2.33;2.10;;;24.70;70.70;;;;;;5013724;28;20217;-69
2023/05/11 10:09:14;;;;;;;4.33;3.20;;;24.70;71.40;;;;;;5026443;28;20926;-70
2023/05/11 10:11:44;;;;;;;3.20;2.83;;;24.50;72.30;;;;;;5021677;28;20439;-70
2023/05/11 10:14:11;;;;;;;2.60;2.10;;;24.50;73.60;;;;;;5015880;28;20470;-69
2023/05/11 10:16:40;;;;;;;2.20;2.00;;;24.90;71.90;;;;;;5014381;28;20526;-69
2023/05/11 10:19:06;;;;;;;3.07;2.40;;;24.50;72.20;;;;;;5011560;28;20448;-69
2023/05/11 10:21:33;;;;;;;3.20;2.10;;;24.60;73.70;;;;;;5005114;28;20418;-69
2023/05/11 10:24:00;;;;;;;4.10;2.47;;;24.70;73.00;;;;;;5019499;28;20449;-69
2023/05/11 10:26:27;;;;;;;2.23;2.13;;;24.60;71.70;;;;;;5004221;28;20910;-68
2023/05/11 10:28:52;;;;;;;2.80;2.40;;;24.40;71.80;;;;;;5006360;28;20911;-68
2023/05/11 10:31:22;;;;;;;2.87;2.67;;;24.30;73.10;;;;;;5013406;28;21001;-68
2023/05/11 10:33:50;;;;;;;3.10;2.00;;;24.10;71.60;;;;;;5007539;28;20249;-68
2023/05/11 10:36:17;;;;;;;3.63;2.30;;;24.20;72.30;;;;;;5003447;28;20425;-69
2023/05/11 10:38:43;;;;;;;2.30;2.10;;;24.30;72.30;;;;;;5014747;28;20855;-69
2023/05/11 10:41:26;;;;;;;2.80;2.30;;;24.50;71.90;;;;;;5008247;28;20426;-68
2023/05/11 10:43:58;;;;;;;3.50;2.50;;;24.20;71.30;;;;;;5004447;28;20182;-68
2023/05/11 10:46:34;;;;;;;2.60;2.40;;;23.50;73.60;;;;;;5018142;28;20413;-69
2023/05/11 10:49:25;;;;;;;3.03;2.53;;;23.00;75.30;;;;;;5006739;28;20895;-69
2023/05/11 10:52:08;;;;;;;2.63;2.07;;;22.80;76.30;;;;;;5011608;28;20842;-68
2023/05/11 10:54:52;;;;;;;4.03;2.07;;;22.60;76.40;;;;;;5000959;28;20599;-69
2023/05/11 10:57:50;;;;;;;2.60;2.40;;;22.70;76.40;;;;;;5008689;28;20428;-69
2023/05/11 11:01:05;;;;;;;2.20;2.00;;;22.90;75.20;;;;;;5005532;28;20457;-69
2023/05/11 11:03:30;;;;;;;5.00;2.33;;;23.20;75.30;;;;;;4993035;28;20595;-70
2023/05/11 11:05:56;;;;;;;3.90;2.33;;;23.00;74.70;;;;;;4984528;28;20716;-68
2023/05/11 11:08:22;;;;;;;2.67;2.47;;;22.60;74.50;;;;;;5000388;28;20242;-69
2023/05/11 11:10:50;;;;;;;2.30;2.10;;;22.60;75.70;;;;;;5016987;28;20795;-69
2023/05/11 11:13:18;;;;;;;2.73;2.50;;;22.60;74.40;;;;;;5009893;28;20507;-68
2023/05/11 11:15:53;;;;;;;4.23;2.23;;;22.60;75.20;;;;;;5014879;28;20509;-68
2023/05/11 11:18:22;;;;;;;2.03;1.93;;;22.40;74.40;;;;;;5008204;28;20452;-68
2023/05/11 11:20:52;;;;;;;1.87;1.77;;;22.40;74.20;;;;;;5009521;28;20455;-69
2023/05/11 11:23:48;;;;;;;2.13;1.93;;;22.30;74.20;;;;;;5011356;28;20437;-68
2023/05/11 11:26:17;;;;;;;3.87;2.07;;;22.40;74.50;;;;;;5014476;28;21033;-68
2023/05/11 11:29:01;;;;;;;2.83;2.20;;;22.40;74.30;;;;;;5011564;28;20899;-69
2023/05/11 11:31:31;;;;;;;2.83;2.30;;;22.50;75.30;;;;;;5007399;28;20495;-69
2023/05/11 11:34:18;;;;;;;2.67;2.10;;;22.40;75.40;;;;;;5016393;28;20580;-68
2023/05/11 11:37:05;;;;;;;4.17;2.87;;;22.40;75.90;;;;;;5000658;28;20424;-68
2023/05/11 11:39:43;;;;;;;2.37;2.17;;;22.30;76.40;;;;;;5017426;28;20445;-69
2023/05/11 11:42:09;;;;;;;2.10;1.90;;;22.30;76.20;;;;;;5005562;28;20751;-68
2023/05/11 11:44:35;;;;;;;3.20;2.20;;;22.30;75.80;;;;;;5021874;28;20551;-69
2023/05/11 11:47:15;;;;;;;2.30;2.20;;;22.30;77.30;;;;;;5011633;28;20495;-68
2023/05/11 11:49:45;;;;;;;3.03;2.47;;;22.40;78.00;;;;;;5023412;28;20448;-69
2023/05/11 11:52:26;;;;;;;2.40;2.20;;;22.10;79.50;;;;;;5031078;28;20540;-70
2023/05/11 11:54:53;;;;;;;4.30;3.90;;;22.00;80.70;;;;;;5030487;28;21153;-69
2023/05/11 11:57:33;;;;;;;3.33;3.03;;;21.80;81.20;;;;;;5031287;28;20761;-71
2023/05/11 11:59:59;;;;;;;2.60;2.40;;;21.90;81.10;;;;;;5025466;28;20416;-69
2023/05/11 12:02:26;;;;;;;2.63;2.43;;;21.90;80.80;;;;;;5032285;28;20431;-71
2023/05/11 12:04:56;;;;;;;12.53;10.70;;;21.90;79.40;;;;;;5033164;28;20204;-70
2023/05/11 12:07:24;;;;;;;8.73;6.70;;;22.00;81.00;;;;;;5031178;28;20424;-68
2023/05/11 12:09:51;;;;;;;7.00;5.93;;;22.10;76.90;;;;;;5031126;28;20417;-67
2023/05/11 12:12:18;;;;;;;5.10;4.00;;;21.90;76.20;;;;;;5024912;28;20943;-67
2023/05/11 12:14:47;;;;;;;5.93;5.20;;;22.00;75.60;;;;;;5043446;28;20467;-67
2023/05/11 12:17:15;;;;;;;8.00;4.30;;;22.10;75.50;;;;;;5028904;28;20564;-67
2023/05/11 12:19:44;;;;;;;7.73;5.10;;;22.30;74.80;;;;;;5031786;28;20809;-67
2023/05/11 12:22:13;;;;;;;2.43;2.23;;;22.40;74.60;;;;;;5030267;28;20423;-67
2023/05/11 12:24:40;;;;;;;5.90;4.20;;;22.40;73.50;;;;;;5031843;28;20518;-68
2023/05/11 12:27:05;;;;;;;2.70;2.50;;;22.50;72.30;;;;;;5031593;28;20429;-67
2023/05/11 12:29:31;;;;;;;4.50;2.33;;;22.70;72.30;;;;;;5039537;28;20425;-67
2023/05/11 12:31:58;;;;;;;6.77;3.17;;;22.90;70.80;;;;;;5030757;28;20178;-68
2023/05/11 12:34:23;;;;;;;2.20;2.00;;;23.00;71.40;;;;;;5026475;28;20472;-67
2023/05/11 12:36:51;;;;;;;5.20;3.30;;;22.70;71.00;;;;;;5026632;28;20404;-66
2023/05/11 12:39:19;;;;;;;2.40;2.10;;;22.90;69.50;;;;;;5030648;28;20199;-66
2023/05/11 12:41:47;;;;;;;3.20;1.97;;;22.90;68.50;;;;;;5033773;28;20758;-67
2023/05/11 12:44:15;;;;;;;5.70;2.00;;;22.80;69.90;;;;;;5035613;28;20501;-68